Terminal Aerodrome Forecast
Issued by NWS Upton, NY

Home | Current Version | Previous Version | Text Only | Print | Product List | Glossary On
Versions: 1 2 3 4 5 6 7 8 9 10 11 12 13 14 15 16 17 18 19 20 21 22 23 24 25 26 27 28 29 30 31 32 33 34 35 36 37 38 39 40 41
000
FTUS41 KOKX 181700
TAFLGA
TAF
KLGA 181735Z 1818/1918 08008KT P6SM SCT030 BKN250
     FM182200 15007KT P6SM BKN150
     FM190200 18005KT P6SM SCT020 BKN150
     FM190600 24005KT P6SM SCT020 BKN150
     FM191000 30007KT P6SM SCT250
     FM191400 33010KT P6SM FEW250=

USA.gov is the U.S. government's official web portal to all federal, state and local government web resources and services.